Hot Springs National Park, AR

1:03 PM CDT on October 02, 2014 (GMT -0500)
Hot Springs Convention Center | Change Station
CLOSE
Current Station
Personal Weather Station
Location: Hot Springs National Park, AR
Elevation: 623 ft
Nearby Weather Stations

Elev 623 ft 34.51 °N, 93.05 °W | Updated 14 minutes ago

Overcast
Overcast
83.9 °F
Feels Like 89 °F
N
8.0
Wind Variable Wind from South
Gusts 14.0 mph

Today
High -- | Low -- °F
--% Chance of Precip.
Yesterday
High -- | Low -- °F
Precip. -- in
7:07 AM 6:54 PM
First Quarter, 61% visible
Pressure 29.83 in
Visibility 10.0 miles
Clouds Few 3300 ft
Scattered Clouds 4200 ft
Heat Index 89 °F
Dew Point 72 °F
Humidity 67%
Rainfall 0.00 in
Snow Depth Not available.
UV 6 out of 12
Pollen 8.70 out of 12
Air Quality Not available.
Flu Activity Not available.
METAR KHOT 021753Z AUTO 25008G14KT 10SM FEW033 SCT042 29/21 A2985 RMK AO2 SLP100 T02940211 10306 20239 58019

More Conditions Fewer Conditions

Pressure 29.83 in
Visibility 10.0 miles
Clouds Few 3300 ft
Scattered Clouds 4200 ft
Heat Index 89 °F
Dew Point 72 °F
Humidity 67%
Rainfall 0.00 in
Snow Depth Not available.
UV 6 out of 12
Pollen 8.70 out of 12
Air Quality Not available.
Flu Activity Not available.
METAR KHOT 021753Z AUTO 25008G14KT 10SM FEW033 SCT042 29/21 A2985 RMK AO2 SLP100 T02940211 10306 20239 58019

More Conditions Fewer Conditions

10-Day Weather Forecast

Almanac

Astronomy

Oct. 02, 2014 Rise Set
Actual Time 7:07 AM CDT 6:54 PM CDT
Civil Twilight 6:42 AM CDT 7:19 PM CDT
Nautical Twilight 6:13 AM CDT 7:48 PM CDT
Astronomical Twilight 5:43 AM CDT 8:18 PM CDT
Moon 2:48 PM CDT 12:38 AM CDT
Length of Visible Light 12h 37m
Length of Day
11h 47m
Tomorrow will be 2m 7s shorter.
First Quarter, 61% of the Moon is Illuminated
Today
First Quarter
Oct 8
Full
Oct 15
Last Quarter
Oct 23
New
Oct 30
First Quarter

Today's Extremes

State Highs State Lows

Community

WunderPhotos

Upload Photos

1,758,316 photos uploaded!

WunderBlogs® & News

Nearby

Snow Depth

Station Depth Elevation
No new snow has been reported.

Earthquake Activity

City Distance Mag. Time & Date
No recent earthquake activity has been reported nearby.
Minimum magnitude displayed is 2.5.

Coastal Water Temperatures

Place Temperature
No Stations Reporting

Nearby Weather Stations